sensor_id;sensor_type;location;lat;lon;timestamp;temperature;humidity
14061;DHT22;7105;43.616;1.434;2022-10-31T00:01:16;19.50;99.90
14061;DHT22;7105;43.616;1.434;2022-10-31T00:03:42;19.50;99.90
14061;DHT22;7105;43.616;1.434;2022-10-31T00:06:08;19.50;99.90
14061;DHT22;7105;43.616;1.434;2022-10-31T00:08:34;19.60;99.90
14061;DHT22;7105;43.616;1.434;2022-10-31T00:11:00;19.60;99.90
14061;DHT22;7105;43.616;1.434;2022-10-31T00:13:26;19.50;99.90
14061;DHT22;7105;43.616;1.434;2022-10-31T00:15:51;19.50;99.90
14061;DHT22;7105;43.616;1.434;2022-10-31T00:18:17;19.50;99.90
14061;DHT22;7105;43.616;1.434;2022-10-31T00:20:43;19.40;99.90
14061;DHT22;7105;43.616;1.434;2022-10-31T00:23:09;19.40;99.90
14061;DHT22;7105;43.616;1.434;2022-10-31T00:25:38;19.40;99.90
14061;DHT22;7105;43.616;1.434;2022-10-31T00:28:08;19.40;99.90
14061;DHT22;7105;43.616;1.434;2022-10-31T00:30:35;19.40;99.90
14061;DHT22;7105;43.616;1.434;2022-10-31T00:33:03;19.40;99.90
14061;DHT22;7105;43.616;1.434;2022-10-31T00:35:29;19.40;99.90
14061;DHT22;7105;43.616;1.434;2022-10-31T00:37:54;19.40;99.90
14061;DHT22;7105;43.616;1.434;2022-10-31T00:40:20;19.40;99.90
14061;DHT22;7105;43.616;1.434;2022-10-31T00:42:46;19.40;99.90
14061;DHT22;7105;43.616;1.434;2022-10-31T00:45:12;19.40;99.90
14061;DHT22;7105;43.616;1.434;2022-10-31T00:47:38;19.30;99.90
14061;DHT22;7105;43.616;1.434;2022-10-31T00:50:07;19.40;99.90
14061;DHT22;7105;43.616;1.434;2022-10-31T00:52:32;19.30;99.90
14061;DHT22;7105;43.616;1.434;2022-10-31T00:54:58;19.30;99.90
14061;DHT22;7105;43.616;1.434;2022-10-31T00:57:24;19.30;99.90
14061;DHT22;7105;43.616;1.434;2022-10-31T00:59:49;19.30;99.90
14061;DHT22;7105;43.616;1.434;2022-10-31T01:02:15;19.20;99.90
14061;DHT22;7105;43.616;1.434;2022-10-31T01:04:41;19.20;99.90
14061;DHT22;7105;43.616;1.434;2022-10-31T01:07:07;19.20;99.90
14061;DHT22;7105;43.616;1.434;2022-10-31T01:09:33;19.10;99.90
14061;DHT22;7105;43.616;1.434;2022-10-31T01:11:58;19.10;99.90
14061;DHT22;7105;43.616;1.434;2022-10-31T01:14:24;19.10;99.90
14061;DHT22;7105;43.616;1.434;2022-10-31T01:16:49;19.00;99.90
14061;DHT22;7105;43.616;1.434;2022-10-31T01:19:15;19.00;99.90
14061;DHT22;7105;43.616;1.434;2022-10-31T01:21:41;19.00;99.90
14061;DHT22;7105;43.616;1.434;2022-10-31T01:24:07;19.00;99.90
14061;DHT22;7105;43.616;1.434;2022-10-31T01:26:33;18.90;99.90
14061;DHT22;7105;43.616;1.434;2022-10-31T01:29:01;18.90;99.90
14061;DHT22;7105;43.616;1.434;2022-10-31T01:31:35;18.90;99.90
14061;DHT22;7105;43.616;1.434;2022-10-31T01:34:06;18.90;99.90
14061;DHT22;7105;43.616;1.434;2022-10-31T01:36:34;18.90;99.90
14061;DHT22;7105;43.616;1.434;2022-10-31T01:39:06;18.90;99.90
14061;DHT22;7105;43.616;1.434;2022-10-31T01:41:34;18.90;99.90
14061;DHT22;7105;43.616;1.434;2022-10-31T01:44:03;18.90;99.90
14061;DHT22;7105;43.616;1.434;2022-10-31T01:46:58;18.80;99.90
14061;DHT22;7105;43.616;1.434;2022-10-31T01:49:38;18.70;99.90
14061;DHT22;7105;43.616;1.434;2022-10-31T01:57:29;18.70;99.90
14061;DHT22;7105;43.616;1.434;2022-10-31T01:59:59;18.70;99.90
14061;DHT22;7105;43.616;1.434;2022-10-31T02:02:27;18.60;99.90
14061;DHT22;7105;43.616;1.434;2022-10-31T02:04:54;18.60;99.90
14061;DHT22;7105;43.616;1.434;2022-10-31T02:07:38;18.70;99.90
14061;DHT22;7105;43.616;1.434;2022-10-31T02:10:05;18.60;99.90
14061;DHT22;7105;43.616;1.434;2022-10-31T02:12:31;18.60;99.90
14061;DHT22;7105;43.616;1.434;2022-10-31T02:14:59;18.50;99.90
14061;DHT22;7105;43.616;1.434;2022-10-31T02:17:25;18.50;99.90
14061;DHT22;7105;43.616;1.434;2022-10-31T02:22:36;18.50;99.90
14061;DHT22;7105;43.616;1.434;2022-10-31T02:36:43;18.50;99.90
14061;DHT22;7105;43.616;1.434;2022-10-31T02:39:18;18.50;99.90
14061;DHT22;7105;43.616;1.434;2022-10-31T02:47:18;18.40;99.90
14061;DHT22;7105;43.616;1.434;2022-10-31T02:52:35;18.30;99.90
14061;DHT22;7105;43.616;1.434;2022-10-31T03:00:24;18.20;99.90
14061;DHT22;7105;43.616;1.434;2022-10-31T03:05:31;18.20;99.90
14061;DHT22;7105;43.616;1.434;2022-10-31T03:10:53;18.30;99.90
14061;DHT22;7105;43.616;1.434;2022-10-31T03:16:14;18.20;99.90
14061;DHT22;7105;43.616;1.434;2022-10-31T03:19:08;18.20;99.90
14061;DHT22;7105;43.616;1.434;2022-10-31T03:21:57;18.20;99.90
14061;DHT22;7105;43.616;1.434;2022-10-31T03:24:29;18.20;99.90
14061;DHT22;7105;43.616;1.434;2022-10-31T03:26:58;18.30;99.90
14061;DHT22;7105;43.616;1.434;2022-10-31T03:29:28;18.30;99.90
14061;DHT22;7105;43.616;1.434;2022-10-31T03:31:57;18.40;99.90
14061;DHT22;7105;43.616;1.434;2022-10-31T03:34:24;18.30;99.90
14061;DHT22;7105;43.616;1.434;2022-10-31T03:36:55;18.30;99.90
14061;DHT22;7105;43.616;1.434;2022-10-31T03:39:22;18.30;99.90
14061;DHT22;7105;43.616;1.434;2022-10-31T03:42:05;18.30;99.90
14061;DHT22;7105;43.616;1.434;2022-10-31T03:44:33;18.20;99.90
14061;DHT22;7105;43.616;1.434;2022-10-31T03:47:00;18.10;99.90
14061;DHT22;7105;43.616;1.434;2022-10-31T03:49:27;18.20;99.90
14061;DHT22;7105;43.616;1.434;2022-10-31T03:52:22;18.20;99.90
14061;DHT22;7105;43.616;1.434;2022-10-31T03:55:05;18.10;99.90
14061;DHT22;7105;43.616;1.434;2022-10-31T04:00:03;18.10;99.90
14061;DHT22;7105;43.616;1.434;2022-10-31T04:02:31;18.20;99.90
14061;DHT22;7105;43.616;1.434;2022-10-31T04:04:58;18.20;99.90
14061;DHT22;7105;43.616;1.434;2022-10-31T04:07:29;18.20;99.90
14061;DHT22;7105;43.616;1.434;2022-10-31T04:09:56;18.20;99.90
14061;DHT22;7105;43.616;1.434;2022-10-31T04:12:24;18.20;99.90
14061;DHT22;7105;43.616;1.434;2022-10-31T04:14:51;18.10;99.90
14061;DHT22;7105;43.616;1.434;2022-10-31T04:17:20;18.10;99.90
14061;DHT22;7105;43.616;1.434;2022-10-31T04:19:47;18.10;99.90
14061;DHT22;7105;43.616;1.434;2022-10-31T04:22:13;18.10;99.90
14061;DHT22;7105;43.616;1.434;2022-10-31T04:24:40;18.10;99.90
14061;DHT22;7105;43.616;1.434;2022-10-31T04:27:06;18.10;99.90
14061;DHT22;7105;43.616;1.434;2022-10-31T04:29:32;18.10;99.90
14061;DHT22;7105;43.616;1.434;2022-10-31T04:31:57;18.00;99.90
14061;DHT22;7105;43.616;1.434;2022-10-31T04:34:23;18.00;99.90
14061;DHT22;7105;43.616;1.434;2022-10-31T04:36:48;18.00;99.90
14061;DHT22;7105;43.616;1.434;2022-10-31T04:39:14;18.00;99.90
14061;DHT22;7105;43.616;1.434;2022-10-31T04:41:40;18.00;99.90
14061;DHT22;7105;43.616;1.434;2022-10-31T04:44:05;17.90;99.90
14061;DHT22;7105;43.616;1.434;2022-10-31T04:46:31;17.90;99.90
14061;DHT22;7105;43.616;1.434;2022-10-31T04:48:57;17.90;99.90
14061;DHT22;7105;43.616;1.434;2022-10-31T04:51:22;17.90;99.90
14061;DHT22;7105;43.616;1.434;2022-10-31T04:53:48;17.80;99.90
14061;DHT22;7105;43.616;1.434;2022-10-31T04:56:14;17.90;99.90
14061;DHT22;7105;43.616;1.434;2022-10-31T04:58:40;17.90;99.90
14061;DHT22;7105;43.616;1.434;2022-10-31T05:01:05;17.90;99.90
14061;DHT22;7105;43.616;1.434;2022-10-31T05:03:31;17.90;99.90
14061;DHT22;7105;43.616;1.434;2022-10-31T05:05:56;17.80;99.90
14061;DHT22;7105;43.616;1.434;2022-10-31T05:08:22;17.80;99.90
14061;DHT22;7105;43.616;1.434;2022-10-31T05:10:48;17.80;99.90
14061;DHT22;7105;43.616;1.434;2022-10-31T05:13:13;17.60;99.90
14061;DHT22;7105;43.616;1.434;2022-10-31T05:15:41;17.50;99.90
14061;DHT22;7105;43.616;1.434;2022-10-31T05:18:06;17.30;99.90
14061;DHT22;7105;43.616;1.434;2022-10-31T05:20:32;17.00;99.90
14061;DHT22;7105;43.616;1.434;2022-10-31T05:22:58;16.90;99.90
14061;DHT22;7105;43.616;1.434;2022-10-31T05:25:26;16.70;99.90
14061;DHT22;7105;43.616;1.434;2022-10-31T05:27:53;16.60;99.90
14061;DHT22;7105;43.616;1.434;2022-10-31T05:30:24;16.50;99.90
14061;DHT22;7105;43.616;1.434;2022-10-31T05:32:51;16.30;99.90
14061;DHT22;7105;43.616;1.434;2022-10-31T05:35:19;16.30;99.90
14061;DHT22;7105;43.616;1.434;2022-10-31T05:37:45;16.20;99.90
14061;DHT22;7105;43.616;1.434;2022-10-31T05:40:12;16.20;99.90
14061;DHT22;7105;43.616;1.434;2022-10-31T05:42:39;16.10;99.90
14061;DHT22;7105;43.616;1.434;2022-10-31T05:45:09;16.00;99.90
14061;DHT22;7105;43.616;1.434;2022-10-31T05:47:35;16.00;99.90
14061;DHT22;7105;43.616;1.434;2022-10-31T05:50:01;15.90;99.90
14061;DHT22;7105;43.616;1.434;2022-10-31T05:52:26;15.90;99.90
14061;DHT22;7105;43.616;1.434;2022-10-31T05:54:52;15.90;99.90
14061;DHT22;7105;43.616;1.434;2022-10-31T05:57:18;15.90;99.90
14061;DHT22;7105;43.616;1.434;2022-10-31T05:59:43;15.80;99.90
14061;DHT22;7105;43.616;1.434;2022-10-31T06:02:09;15.80;99.90
14061;DHT22;7105;43.616;1.434;2022-10-31T06:04:35;15.90;99.90
14061;DHT22;7105;43.616;1.434;2022-10-31T06:07:00;15.90;99.90
14061;DHT22;7105;43.616;1.434;2022-10-31T06:09:26;16.00;99.90
14061;DHT22;7105;43.616;1.434;2022-10-31T06:11:51;15.90;99.90
14061;DHT22;7105;43.616;1.434;2022-10-31T06:14:17;16.00;99.90
14061;DHT22;7105;43.616;1.434;2022-10-31T06:16:43;16.10;99.90
14061;DHT22;7105;43.616;1.434;2022-10-31T06:19:08;16.10;99.90
14061;DHT22;7105;43.616;1.434;2022-10-31T06:21:34;16.20;99.90
14061;DHT22;7105;43.616;1.434;2022-10-31T06:24:00;16.00;99.90
14061;DHT22;7105;43.616;1.434;2022-10-31T06:26:25;16.00;99.90
14061;DHT22;7105;43.616;1.434;2022-10-31T06:28:51;16.10;99.90
14061;DHT22;7105;43.616;1.434;2022-10-31T06:31:17;16.10;99.90
14061;DHT22;7105;43.616;1.434;2022-10-31T06:33:42;16.20;99.90
14061;DHT22;7105;43.616;1.434;2022-10-31T06:36:08;16.20;99.90
14061;DHT22;7105;43.616;1.434;2022-10-31T06:38:34;16.20;99.90
14061;DHT22;7105;43.616;1.434;2022-10-31T06:41:04;16.30;99.90
14061;DHT22;7105;43.616;1.434;2022-10-31T06:43:30;16.40;99.90
14061;DHT22;7105;43.616;1.434;2022-10-31T06:45:56;16.40;99.90
14061;DHT22;7105;43.616;1.434;2022-10-31T06:48:21;16.40;99.90
14061;DHT22;7105;43.616;1.434;2022-10-31T06:50:47;16.40;99.90
14061;DHT22;7105;43.616;1.434;2022-10-31T06:53:13;16.40;99.90
14061;DHT22;7105;43.616;1.434;2022-10-31T06:55:40;16.40;99.90
14061;DHT22;7105;43.616;1.434;2022-10-31T06:58:06;16.40;99.90
14061;DHT22;7105;43.616;1.434;2022-10-31T07:00:34;16.50;99.90
14061;DHT22;7105;43.616;1.434;2022-10-31T07:03:03;16.70;99.90
14061;DHT22;7105;43.616;1.434;2022-10-31T07:05:29;16.70;99.90
14061;DHT22;7105;43.616;1.434;2022-10-31T07:08:00;16.90;99.90
14061;DHT22;7105;43.616;1.434;2022-10-31T07:10:28;16.90;99.90
14061;DHT22;7105;43.616;1.434;2022-10-31T07:13:01;17.00;99.90
14061;DHT22;7105;43.616;1.434;2022-10-31T07:15:29;17.10;99.90
14061;DHT22;7105;43.616;1.434;2022-10-31T07:18:00;17.40;99.90
14061;DHT22;7105;43.616;1.434;2022-10-31T07:20:27;17.20;99.90
14061;DHT22;7105;43.616;1.434;2022-10-31T07:22:53;17.10;99.90
14061;DHT22;7105;43.616;1.434;2022-10-31T07:25:18;17.10;99.90
14061;DHT22;7105;43.616;1.434;2022-10-31T07:27:44;17.20;99.90
14061;DHT22;7105;43.616;1.434;2022-10-31T07:30:11;17.30;99.90
14061;DHT22;7105;43.616;1.434;2022-10-31T07:32:40;17.50;99.90
14061;DHT22;7105;43.616;1.434;2022-10-31T07:35:11;17.60;99.90
14061;DHT22;7105;43.616;1.434;2022-10-31T07:37:38;17.50;99.90
14061;DHT22;7105;43.616;1.434;2022-10-31T07:40:04;17.40;99.90
14061;DHT22;7105;43.616;1.434;2022-10-31T07:42:42;17.40;99.90
14061;DHT22;7105;43.616;1.434;2022-10-31T07:45:10;17.40;99.90
14061;DHT22;7105;43.616;1.434;2022-10-31T07:50:06;17.40;99.90
14061;DHT22;7105;43.616;1.434;2022-10-31T07:52:32;17.50;99.90
14061;DHT22;7105;43.616;1.434;2022-10-31T07:54:58;17.80;99.90
14061;DHT22;7105;43.616;1.434;2022-10-31T07:57:23;18.20;99.90
14061;DHT22;7105;43.616;1.434;2022-10-31T07:59:49;17.70;99.90
14061;DHT22;7105;43.616;1.434;2022-10-31T08:02:16;17.40;99.90
14061;DHT22;7105;43.616;1.434;2022-10-31T08:04:41;17.20;99.90
14061;DHT22;7105;43.616;1.434;2022-10-31T08:07:07;17.50;99.90
14061;DHT22;7105;43.616;1.434;2022-10-31T08:09:32;19.50;99.90
14061;DHT22;7105;43.616;1.434;2022-10-31T08:11:58;23.50;99.90
14061;DHT22;7105;43.616;1.434;2022-10-31T08:14:24;25.10;99.90
14061;DHT22;7105;43.616;1.434;2022-10-31T08:16:50;26.80;99.90
14061;DHT22;7105;43.616;1.434;2022-10-31T08:19:15;27.90;99.90
14061;DHT22;7105;43.616;1.434;2022-10-31T08:21:41;27.20;99.90
14061;DHT22;7105;43.616;1.434;2022-10-31T08:24:07;28.40;99.90
14061;DHT22;7105;43.616;1.434;2022-10-31T08:26:32;27.80;99.90
14061;DHT22;7105;43.616;1.434;2022-10-31T08:28:58;26.90;99.90
14061;DHT22;7105;43.616;1.434;2022-10-31T08:31:24;26.50;99.90
14061;DHT22;7105;43.616;1.434;2022-10-31T08:33:52;27.50;99.90
14061;DHT22;7105;43.616;1.434;2022-10-31T08:36:18;27.30;99.90
14061;DHT22;7105;43.616;1.434;2022-10-31T08:38:45;26.40;99.90
14061;DHT22;7105;43.616;1.434;2022-10-31T08:41:11;26.90;99.90
14061;DHT22;7105;43.616;1.434;2022-10-31T08:43:37;24.80;99.90
14061;DHT22;7105;43.616;1.434;2022-10-31T08:46:02;24.00;99.90
14061;DHT22;7105;43.616;1.434;2022-10-31T08:48:28;24.50;99.90
14061;DHT22;7105;43.616;1.434;2022-10-31T08:50:56;24.60;99.90
14061;DHT22;7105;43.616;1.434;2022-10-31T08:53:24;23.90;99.90
14061;DHT22;7105;43.616;1.434;2022-10-31T08:55:49;23.00;99.90
14061;DHT22;7105;43.616;1.434;2022-10-31T08:58:18;23.10;99.90
14061;DHT22;7105;43.616;1.434;2022-10-31T09:00:45;24.20;99.90
14061;DHT22;7105;43.616;1.434;2022-10-31T09:03:13;25.80;99.90
14061;DHT22;7105;43.616;1.434;2022-10-31T09:05:39;25.50;99.90
14061;DHT22;7105;43.616;1.434;2022-10-31T09:08:06;24.90;99.90
14061;DHT22;7105;43.616;1.434;2022-10-31T09:10:34;23.90;99.90
14061;DHT22;7105;43.616;1.434;2022-10-31T09:13:03;22.60;99.90
14061;DHT22;7105;43.616;1.434;2022-10-31T09:15:34;22.10;99.90
14061;DHT22;7105;43.616;1.434;2022-10-31T09:17:59;22.10;99.90
14061;DHT22;7105;43.616;1.434;2022-10-31T09:20:27;22.20;99.90
14061;DHT22;7105;43.616;1.434;2022-10-31T09:23:01;21.90;99.90
14061;DHT22;7105;43.616;1.434;2022-10-31T09:25:28;22.00;99.90
14061;DHT22;7105;43.616;1.434;2022-10-31T09:27:57;21.80;99.90
14061;DHT22;7105;43.616;1.434;2022-10-31T09:30:24;21.80;99.90
14061;DHT22;7105;43.616;1.434;2022-10-31T09:33:01;21.80;99.90
14061;DHT22;7105;43.616;1.434;2022-10-31T09:35:28;22.00;99.90
14061;DHT22;7105;43.616;1.434;2022-10-31T09:37:58;22.00;99.90
14061;DHT22;7105;43.616;1.434;2022-10-31T09:46:13;22.20;99.90
14061;DHT22;7105;43.616;1.434;2022-10-31T09:48:50;22.10;99.90
14061;DHT22;7105;43.616;1.434;2022-10-31T09:51:41;22.10;99.90
14061;DHT22;7105;43.616;1.434;2022-10-31T09:54:12;22.00;99.90
14061;DHT22;7105;43.616;1.434;2022-10-31T09:56:39;22.00;99.90
14061;DHT22;7105;43.616;1.434;2022-10-31T09:59:10;22.00;99.90
14061;DHT22;7105;43.616;1.434;2022-10-31T10:01:53;22.10;99.90
14061;DHT22;7105;43.616;1.434;2022-10-31T10:04:40;22.10;99.90
14061;DHT22;7105;43.616;1.434;2022-10-31T10:07:35;22.00;99.90
14061;DHT22;7105;43.616;1.434;2022-10-31T10:10:17;21.90;99.90
14061;DHT22;7105;43.616;1.434;2022-10-31T10:15:50;22.10;99.90
14061;DHT22;7105;43.616;1.434;2022-10-31T10:23:43;22.30;99.90
14061;DHT22;7105;43.616;1.434;2022-10-31T10:26:18;22.40;99.90
14061;DHT22;7105;43.616;1.434;2022-10-31T10:28:49;22.30;99.90
14061;DHT22;7105;43.616;1.434;2022-10-31T10:31:23;22.30;99.90
14061;DHT22;7105;43.616;1.434;2022-10-31T10:34:10;22.40;99.90
14061;DHT22;7105;43.616;1.434;2022-10-31T10:39:43;22.50;99.90
14061;DHT22;7105;43.616;1.434;2022-10-31T10:42:13;22.50;99.90
14061;DHT22;7105;43.616;1.434;2022-10-31T10:44:58;22.60;99.90
14061;DHT22;7105;43.616;1.434;2022-10-31T10:47:46;22.70;99.90
14061;DHT22;7105;43.616;1.434;2022-10-31T10:50:18;22.70;99.90
14061;DHT22;7105;43.616;1.434;2022-10-31T10:56:25;22.90;99.90
14061;DHT22;7105;43.616;1.434;2022-10-31T10:58:56;23.00;99.90
14061;DHT22;7105;43.616;1.434;2022-10-31T11:01:23;22.90;99.90
14061;DHT22;7105;43.616;1.434;2022-10-31T11:03:48;23.10;99.90
14061;DHT22;7105;43.616;1.434;2022-10-31T11:06:19;23.20;99.90
14061;DHT22;7105;43.616;1.434;2022-10-31T11:08:47;23.30;99.90
14061;DHT22;7105;43.616;1.434;2022-10-31T11:11:27;23.40;99.90
14061;DHT22;7105;43.616;1.434;2022-10-31T11:14:00;23.40;99.90
14061;DHT22;7105;43.616;1.434;2022-10-31T11:16:29;23.50;99.90
14061;DHT22;7105;43.616;1.434;2022-10-31T11:21:40;23.50;99.90
14061;DHT22;7105;43.616;1.434;2022-10-31T11:24:18;23.50;99.90
14061;DHT22;7105;43.616;1.434;2022-10-31T11:26:47;23.60;99.90
14061;DHT22;7105;43.616;1.434;2022-10-31T11:29:21;23.70;99.90
14061;DHT22;7105;43.616;1.434;2022-10-31T11:31:51;23.60;99.90
14061;DHT22;7105;43.616;1.434;2022-10-31T11:34:41;23.60;99.90
14061;DHT22;7105;43.616;1.434;2022-10-31T11:37:15;23.50;99.90
14061;DHT22;7105;43.616;1.434;2022-10-31T11:39:44;23.70;99.90
14061;DHT22;7105;43.616;1.434;2022-10-31T11:42:11;23.90;99.90
14061;DHT22;7105;43.616;1.434;2022-10-31T11:44:42;23.60;99.90
14061;DHT22;7105;43.616;1.434;2022-10-31T11:47:14;23.80;99.90
14061;DHT22;7105;43.616;1.434;2022-10-31T11:49:42;23.90;99.90
14061;DHT22;7105;43.616;1.434;2022-10-31T11:52:30;24.00;99.90
14061;DHT22;7105;43.616;1.434;2022-10-31T11:55:14;24.00;99.90
14061;DHT22;7105;43.616;1.434;2022-10-31T11:57:48;24.00;99.90
14061;DHT22;7105;43.616;1.434;2022-10-31T12:00:37;24.10;99.90
14061;DHT22;7105;43.616;1.434;2022-10-31T12:06:37;24.30;99.90
14061;DHT22;7105;43.616;1.434;2022-10-31T12:08:39;24.30;99.90
14061;DHT22;7105;43.616;1.434;2022-10-31T12:22:08;24.20;99.90
14061;DHT22;7105;43.616;1.434;2022-10-31T12:30:23;24.50;99.90
14061;DHT22;7105;43.616;1.434;2022-10-31T12:33:34;24.60;99.90
14061;DHT22;7105;43.616;1.434;2022-10-31T12:36:32;24.60;99.90
14061;DHT22;7105;43.616;1.434;2022-10-31T12:39:25;24.50;99.90
14061;DHT22;7105;43.616;1.434;2022-10-31T12:42:11;24.40;99.90
14061;DHT22;7105;43.616;1.434;2022-10-31T12:45:04;24.50;99.90
14061;DHT22;7105;43.616;1.434;2022-10-31T13:04:12;24.20;99.90
14061;DHT22;7105;43.616;1.434;2022-10-31T13:06:48;24.30;99.90
14061;DHT22;7105;43.616;1.434;2022-10-31T13:09:43;24.20;99.90
14061;DHT22;7105;43.616;1.434;2022-10-31T13:12:14;24.30;99.90
14061;DHT22;7105;43.616;1.434;2022-10-31T13:14:53;24.30;99.90
14061;DHT22;7105;43.616;1.434;2022-10-31T13:17:42;24.40;99.90
14061;DHT22;7105;43.616;1.434;2022-10-31T13:20:38;24.50;99.90
14061;DHT22;7105;43.616;1.434;2022-10-31T13:23:22;24.50;99.90
14061;DHT22;7105;43.616;1.434;2022-10-31T13:25:55;24.50;99.90
14061;DHT22;7105;43.616;1.434;2022-10-31T13:28:34;24.60;99.90
14061;DHT22;7105;43.616;1.434;2022-10-31T13:31:00;24.50;99.90
14061;DHT22;7105;43.616;1.434;2022-10-31T13:34:08;24.70;99.90
14061;DHT22;7105;43.616;1.434;2022-10-31T13:36:45;24.90;99.90
14061;DHT22;7105;43.616;1.434;2022-10-31T13:44:35;24.50;99.90
14061;DHT22;7105;43.616;1.434;2022-10-31T13:47:03;24.50;99.90
14061;DHT22;7105;43.616;1.434;2022-10-31T13:54:46;24.60;99.90
14061;DHT22;7105;43.616;1.434;2022-10-31T14:02:54;24.30;99.90
14061;DHT22;7105;43.616;1.434;2022-10-31T14:05:34;24.30;99.90
14061;DHT22;7105;43.616;1.434;2022-10-31T14:08:05;24.20;99.90
14061;DHT22;7105;43.616;1.434;2022-10-31T14:10:45;24.30;99.90
14061;DHT22;7105;43.616;1.434;2022-10-31T14:13:27;24.20;99.90
14061;DHT22;7105;43.616;1.434;2022-10-31T14:16:04;24.10;99.90
14061;DHT22;7105;43.616;1.434;2022-10-31T14:18:34;24.00;99.90
14061;DHT22;7105;43.616;1.434;2022-10-31T14:21:00;24.00;99.90
14061;DHT22;7105;43.616;1.434;2022-10-31T14:23:36;23.90;99.90
14061;DHT22;7105;43.616;1.434;2022-10-31T14:26:32;23.80;99.90
14061;DHT22;7105;43.616;1.434;2022-10-31T14:31:54;23.80;99.90
14061;DHT22;7105;43.616;1.434;2022-10-31T14:34:27;23.70;99.90
14061;DHT22;7105;43.616;1.434;2022-10-31T14:50:59;23.40;99.90
14061;DHT22;7105;43.616;1.434;2022-10-31T14:53:49;23.40;99.90
14061;DHT22;7105;43.616;1.434;2022-10-31T14:56:27;23.40;99.90
14061;DHT22;7105;43.616;1.434;2022-10-31T14:58:57;23.30;99.90
14061;DHT22;7105;43.616;1.434;2022-10-31T15:01:29;23.30;99.90
14061;DHT22;7105;43.616;1.434;2022-10-31T15:06:44;23.20;99.90
14061;DHT22;7105;43.616;1.434;2022-10-31T15:09:26;23.20;99.90
14061;DHT22;7105;43.616;1.434;2022-10-31T15:11:52;23.20;99.90
14061;DHT22;7105;43.616;1.434;2022-10-31T15:14:30;23.20;99.90
14061;DHT22;7105;43.616;1.434;2022-10-31T15:17:01;23.10;99.90
14061;DHT22;7105;43.616;1.434;2022-10-31T15:19:30;23.10;99.90
14061;DHT22;7105;43.616;1.434;2022-10-31T15:21:57;23.10;99.90
14061;DHT22;7105;43.616;1.434;2022-10-31T15:24:26;23.00;99.90
14061;DHT22;7105;43.616;1.434;2022-10-31T15:26:53;23.00;99.90
14061;DHT22;7105;43.616;1.434;2022-10-31T15:29:22;23.00;99.90
14061;DHT22;7105;43.616;1.434;2022-10-31T15:31:51;22.90;99.90
14061;DHT22;7105;43.616;1.434;2022-10-31T15:36:55;22.80;99.90
14061;DHT22;7105;43.616;1.434;2022-10-31T15:39:21;22.80;99.90
14061;DHT22;7105;43.616;1.434;2022-10-31T15:41:57;22.80;99.90
14061;DHT22;7105;43.616;1.434;2022-10-31T15:44:26;22.70;99.90
14061;DHT22;7105;43.616;1.434;2022-10-31T15:46:55;22.70;99.90
14061;DHT22;7105;43.616;1.434;2022-10-31T15:49:43;22.70;99.90
14061;DHT22;7105;43.616;1.434;2022-10-31T15:54:52;22.60;99.90
14061;DHT22;7105;43.616;1.434;2022-10-31T15:57:19;22.60;99.90
14061;DHT22;7105;43.616;1.434;2022-10-31T15:59:47;22.50;99.90
14061;DHT22;7105;43.616;1.434;2022-10-31T16:02:18;22.50;99.90
14061;DHT22;7105;43.616;1.434;2022-10-31T16:04:55;22.50;99.90
14061;DHT22;7105;43.616;1.434;2022-10-31T16:07:22;22.50;99.90
14061;DHT22;7105;43.616;1.434;2022-10-31T16:09:50;22.40;99.90
14061;DHT22;7105;43.616;1.434;2022-10-31T16:12:16;22.40;99.90
14061;DHT22;7105;43.616;1.434;2022-10-31T16:14:42;22.40;99.90
14061;DHT22;7105;43.616;1.434;2022-10-31T16:17:16;22.40;99.90
14061;DHT22;7105;43.616;1.434;2022-10-31T16:19:51;22.40;99.90
14061;DHT22;7105;43.616;1.434;2022-10-31T16:22:25;22.40;99.90
14061;DHT22;7105;43.616;1.434;2022-10-31T16:27:36;22.30;99.90
14061;DHT22;7105;43.616;1.434;2022-10-31T16:32:59;22.30;99.90
14061;DHT22;7105;43.616;1.434;2022-10-31T16:35:37;22.30;99.90
14061;DHT22;7105;43.616;1.434;2022-10-31T16:38:03;22.20;99.90
14061;DHT22;7105;43.616;1.434;2022-10-31T16:40:30;22.20;99.90
14061;DHT22;7105;43.616;1.434;2022-10-31T16:42:58;22.20;99.90
14061;DHT22;7105;43.616;1.434;2022-10-31T16:45:29;22.10;99.90
14061;DHT22;7105;43.616;1.434;2022-10-31T16:48:05;22.10;99.90
14061;DHT22;7105;43.616;1.434;2022-10-31T16:50:31;22.10;99.90
14061;DHT22;7105;43.616;1.434;2022-10-31T16:52:58;22.10;99.90
14061;DHT22;7105;43.616;1.434;2022-10-31T16:55:23;22.10;99.90
14061;DHT22;7105;43.616;1.434;2022-10-31T16:57:54;22.00;99.90
14061;DHT22;7105;43.616;1.434;2022-10-31T17:00:22;22.00;99.90
14061;DHT22;7105;43.616;1.434;2022-10-31T17:02:50;22.00;99.90
14061;DHT22;7105;43.616;1.434;2022-10-31T17:05:18;22.00;99.90
14061;DHT22;7105;43.616;1.434;2022-10-31T17:07:44;22.00;99.90
14061;DHT22;7105;43.616;1.434;2022-10-31T17:10:11;22.00;99.90
14061;DHT22;7105;43.616;1.434;2022-10-31T17:12:40;22.00;99.90
14061;DHT22;7105;43.616;1.434;2022-10-31T17:15:33;21.90;99.90
14061;DHT22;7105;43.616;1.434;2022-10-31T17:17:56;21.80;99.90
14061;DHT22;7105;43.616;1.434;2022-10-31T17:20:27;21.80;99.90
14061;DHT22;7105;43.616;1.434;2022-10-31T17:22:54;21.80;99.90
14061;DHT22;7105;43.616;1.434;2022-10-31T17:25:23;21.80;99.90
14061;DHT22;7105;43.616;1.434;2022-10-31T17:27:50;21.80;99.90
14061;DHT22;7105;43.616;1.434;2022-10-31T17:30:17;21.80;99.90
14061;DHT22;7105;43.616;1.434;2022-10-31T17:32:44;21.90;99.90
14061;DHT22;7105;43.616;1.434;2022-10-31T17:35:12;21.90;99.90
14061;DHT22;7105;43.616;1.434;2022-10-31T17:37:38;21.80;99.90
14061;DHT22;7105;43.616;1.434;2022-10-31T17:40:04;21.80;99.90
14061;DHT22;7105;43.616;1.434;2022-10-31T17:42:31;21.80;99.90
14061;DHT22;7105;43.616;1.434;2022-10-31T17:44:56;21.80;99.90
14061;DHT22;7105;43.616;1.434;2022-10-31T17:47:22;21.70;99.90
14061;DHT22;7105;43.616;1.434;2022-10-31T17:49:48;21.70;99.90
14061;DHT22;7105;43.616;1.434;2022-10-31T17:52:13;21.70;99.90
14061;DHT22;7105;43.616;1.434;2022-10-31T17:54:39;21.70;99.90
14061;DHT22;7105;43.616;1.434;2022-10-31T17:57:05;21.60;99.90
14061;DHT22;7105;43.616;1.434;2022-10-31T17:59:30;21.60;99.90
14061;DHT22;7105;43.616;1.434;2022-10-31T18:01:56;21.70;99.90
14061;DHT22;7105;43.616;1.434;2022-10-31T18:04:22;21.70;99.90
14061;DHT22;7105;43.616;1.434;2022-10-31T18:06:48;21.70;99.90
14061;DHT22;7105;43.616;1.434;2022-10-31T18:09:15;21.60;99.90
14061;DHT22;7105;43.616;1.434;2022-10-31T18:11:41;21.60;99.90
14061;DHT22;7105;43.616;1.434;2022-10-31T18:14:08;21.60;99.90
14061;DHT22;7105;43.616;1.434;2022-10-31T18:16:34;21.50;99.90
14061;DHT22;7105;43.616;1.434;2022-10-31T18:19:00;21.50;99.90
14061;DHT22;7105;43.616;1.434;2022-10-31T18:21:29;21.50;99.90
14061;DHT22;7105;43.616;1.434;2022-10-31T18:23:57;21.40;99.90
14061;DHT22;7105;43.616;1.434;2022-10-31T18:26:24;21.40;99.90
14061;DHT22;7105;43.616;1.434;2022-10-31T18:28:50;21.40;99.90
14061;DHT22;7105;43.616;1.434;2022-10-31T18:31:16;21.30;99.90
14061;DHT22;7105;43.616;1.434;2022-10-31T18:33:42;21.30;99.90
14061;DHT22;7105;43.616;1.434;2022-10-31T18:36:08;21.30;99.90